Detall de PIREP

Printer-friendly versionPDF version

[2017/07/29 16:32:00]
Flight IATA:CT1004
Pilot Number:042
Company ICAO:CAT
Aircraft Type:B738/F
PAX:58
Departing Airport: LEIB
Destination Airport: LEBB
Alternate Airport:LEVT
Online: VATSIM
Route:EPAMA UN856 RES UN863 ARBEK UN725 LARDA UN871 RONKO UM601 CEGAM
Flight Level:F340
No Slew and time accel
No pause
Crash detect
Detect pilot in Cockpit between each 30 and 45 minutes
16:32 Zero fuel Weight: 121805 Lbs, Fuel Weight: 46051 Lbs
16:32 VATSIM:LEIB 291600Z 08007KT 050V120 CAVOK 30/22 Q1014 NOSIG
16:32 VATSIM:LEBB 291600Z 01006KT 330V060 CAVOK 30/18 Q1014 NOSIG
16:44 Parking Brakes off
16:48 Take-off
16:48 Take off Weight: 166995 Lbs
16:48 Wind: 240º @ 010 Knots Heading: 242º
16:48 POS N38º 52´ 15´´ E001º 22´ 07´´
16:48 Flaps:4 at 169 Knots
16:49 Gear Up: 171 Knots
16:49 Flaps:3 at 164 Knots
16:49 Flaps:2 at 181 Knots
16:49 Flaps:1 at 206 Knots
16:50 Flaps:0 at 232 Knots
17:03 Wind:338º@034 Knots Heading: 353º Ground Speed: 434 Knots Altitude 27276 ft
17:08 TOC
17:08 Fuel Weight: 40780 Lb
17:18 Wind:335º@044 Knots Heading: 293º Ground Speed: 418 Knots Altitude 34465 ft
17:32 TOD
17:32 Fuel Weight: 38354 Lb
17:33 Wind:328º@035 Knots Heading: 009º Ground Speed: 419 Knots Altitude 33402 ft
17:47 Flaps:1 at 241 Knots
17:47 Flaps:2 at 220 Knots
17:48 Wind:044º@014 Knots Heading: 346º Ground Speed: 216 Knots Altitude 8385 ft
17:48 Flaps:3 at 202 Knots
17:52 Flaps:4 at 183 Knots
17:52 Gear Down: 180 Knots
17:52 Flaps:5 at 180 Knots
17:53 Flaps:6 at 172 Knots
17:53 Flaps:7 at 169 Knots
17:53 Flaps:8 at 160 Knots
17:56 TouchDown:Rate -116 ft/min Speed: 143 Knots
17:56 VATSIM:LEBB 291730Z 06008KT 030V100 CAVOK 29/17 Q1013 NOSIG
17:56 Land
17:56 Wind:000º@000 Knots
17:56 Heading: 296º
17:56 Flight Duration: 01:08
17:56 Landing Weight: 159057 Lbs
17:56 POS N43º 18´ 12´´ W002º 55´ 01´´
18:01 Parking brakes on
18:01 Block to Block Duration: 01:17
18:01 Final Fuel: 36860 Lbls
18:01 Spent Fuel: 9190 Lbls
18:01 Flight Length: 405 NM
18:01 TOD Land Length: 118 NM

Exportar CSV

Powered by Drupal - Modified by Danger4k